createdAt,value
2018-10-12T00:00:25.880Z,15.51
2018-10-12T00:02:56.169Z,15.76
2018-10-12T00:05:26.245Z,15.82
2018-10-12T00:07:56.427Z,15.76
2018-10-12T00:10:26.576Z,15.72
2018-10-12T00:12:56.935Z,15.79
2018-10-12T00:15:27.509Z,15.77
2018-10-12T00:17:58.118Z,15.86
2018-10-12T00:20:28.432Z,15.82
2018-10-12T00:22:58.768Z,15.80
2018-10-12T00:25:28.873Z,15.70
2018-10-12T00:27:59.024Z,15.66
2018-10-12T00:30:29.500Z,15.69
2018-10-12T00:32:59.769Z,15.79
2018-10-12T00:35:29.831Z,15.80
2018-10-12T00:38:00.257Z,15.85
2018-10-12T00:40:30.942Z,15.78
2018-10-12T00:43:01.149Z,15.72
2018-10-12T00:45:31.373Z,15.72
2018-10-12T00:48:02.641Z,15.82
2018-10-12T00:50:33.429Z,15.88
2018-10-12T00:53:03.672Z,15.90
2018-10-12T00:55:35.322Z,16.00
2018-10-12T00:58:05.441Z,16.04
2018-10-12T01:00:35.937Z,15.96
2018-10-12T01:03:06.212Z,15.99
2018-10-12T01:05:36.719Z,16.08
2018-10-12T01:08:07.033Z,16.22
2018-10-12T01:10:37.677Z,16.02
2018-10-12T01:13:07.923Z,16.02
2018-10-12T01:15:38.633Z,16.03
2018-10-12T01:18:08.917Z,16.07
2018-10-12T01:20:39.384Z,16.05
2018-10-12T01:23:09.629Z,16.13
2018-10-12T01:25:39.931Z,16.20
2018-10-12T01:28:10.386Z,16.11
2018-10-12T01:30:41.023Z,16.10
2018-10-12T01:33:11.204Z,16.13
2018-10-12T01:35:41.418Z,16.14
2018-10-12T01:38:11.892Z,16.01
2018-10-12T01:40:42.066Z,15.89
2018-10-12T01:43:12.261Z,15.79
2018-10-12T01:45:42.321Z,15.75
2018-10-12T01:48:12.894Z,15.72
2018-10-12T01:50:43.061Z,15.71
2018-10-12T01:53:13.309Z,15.73
2018-10-12T01:55:43.391Z,15.93
2018-10-12T01:58:13.566Z,15.79
2018-10-12T02:00:43.781Z,15.78
2018-10-12T02:03:14.035Z,15.81
2018-10-12T02:05:44.176Z,15.85
2018-10-12T02:08:14.358Z,15.86
2018-10-12T02:10:44.540Z,15.69
2018-10-12T02:13:14.821Z,15.59
2018-10-12T02:15:45.273Z,15.57
2018-10-12T02:18:15.826Z,15.79
2018-10-12T02:20:47.432Z,15.67
2018-10-12T02:23:17.914Z,15.74
2018-10-12T02:25:48.060Z,15.69
2018-10-12T02:28:18.405Z,15.68
2018-10-12T02:30:48.564Z,15.81
2018-10-12T02:33:18.629Z,15.79
2018-10-12T02:35:48.760Z,15.65
2018-10-12T02:38:18.962Z,15.54
2018-10-12T02:40:49.143Z,15.60
2018-10-12T02:43:19.429Z,15.57
2018-10-12T02:45:49.550Z,15.67
2018-10-12T02:48:19.756Z,15.65
2018-10-12T02:50:49.917Z,15.69
2018-10-12T02:53:19.959Z,15.72
2018-10-12T02:55:49.962Z,15.83
2018-10-12T02:58:20.330Z,15.82
2018-10-12T03:00:50.437Z,15.90
2018-10-12T03:03:20.688Z,15.79
2018-10-12T03:05:50.747Z,15.96
2018-10-12T03:08:21.016Z,15.88
2018-10-12T03:10:51.045Z,15.86
2018-10-12T03:13:21.356Z,15.82
2018-10-12T03:15:51.532Z,15.85
2018-10-12T03:18:21.644Z,15.81
2018-10-12T03:20:51.669Z,15.91
2018-10-12T03:23:21.841Z,15.92
2018-10-12T03:25:52.129Z,16.08
2018-10-12T03:28:25.772Z,16.04
2018-10-12T03:30:56.131Z,16.14
2018-10-12T03:33:26.927Z,16.07
2018-10-12T03:35:58.145Z,16.17
2018-10-12T03:38:28.522Z,16.05
2018-10-12T03:40:59.233Z,16.00
2018-10-12T03:43:29.477Z,15.98
2018-10-12T03:45:59.652Z,16.03
2018-10-12T03:48:29.902Z,15.94
2018-10-12T03:50:59.995Z,15.95
2018-10-12T03:53:30.297Z,15.98
2018-10-12T03:56:00.330Z,15.94
2018-10-12T03:58:30.467Z,16.01
2018-10-12T04:01:00.469Z,16.04
2018-10-12T04:03:30.685Z,15.90
2018-10-12T04:06:00.707Z,15.91
2018-10-12T04:08:30.758Z,16.00
2018-10-12T04:11:00.856Z,15.87
2018-10-12T04:13:31.049Z,15.93
2018-10-12T04:16:01.672Z,15.87
2018-10-12T04:18:31.813Z,15.84
2018-10-12T04:21:01.865Z,15.77
2018-10-12T04:23:32.053Z,15.77
2018-10-12T04:26:02.159Z,15.70
2018-10-12T04:28:32.579Z,15.66
2018-10-12T04:31:02.854Z,15.63
2018-10-12T04:33:33.100Z,15.66
2018-10-12T04:36:03.178Z,15.69
2018-10-12T04:39:43.618Z,15.67
2018-10-12T04:42:14.148Z,15.59
2018-10-12T04:44:44.352Z,15.51
2018-10-12T04:47:14.669Z,15.55
2018-10-12T04:49:44.800Z,15.45
2018-10-12T04:52:15.931Z,15.35
2018-10-12T04:54:46.168Z,15.31
2018-10-12T04:57:16.308Z,15.31
2018-10-12T04:59:46.348Z,15.30
2018-10-12T05:02:16.348Z,15.21
2018-10-12T05:04:46.647Z,15.18
2018-10-12T05:07:16.694Z,15.11
2018-10-12T05:09:46.896Z,15.05
2018-10-12T05:12:17.253Z,15.04
2018-10-12T05:14:47.501Z,14.97
2018-10-12T05:17:17.740Z,14.94
2018-10-12T05:19:47.853Z,14.94
2018-10-12T05:22:18.267Z,15.00
2018-10-12T05:24:48.466Z,14.99
2018-10-12T05:27:18.526Z,15.04
2018-10-12T05:29:48.730Z,15.00
2018-10-12T05:32:18.921Z,14.97
2018-10-12T05:34:49.168Z,14.94
2018-10-12T05:37:19.215Z,14.95
2018-10-12T05:39:49.468Z,15.03
2018-10-12T05:42:19.766Z,15.00
2018-10-12T05:44:50.429Z,15.02
2018-10-12T05:47:20.468Z,15.06
2018-10-12T05:50:06.207Z,15.11
2018-10-12T05:52:37.608Z,15.16
2018-10-12T05:55:08.455Z,15.31
2018-10-12T05:57:42.039Z,15.24
2018-10-12T06:00:12.742Z,15.24
2018-10-12T06:02:42.812Z,15.24
2018-10-12T06:05:13.191Z,15.41
2018-10-12T06:07:43.490Z,15.44
2018-10-12T06:10:13.614Z,15.45
2018-10-12T06:12:43.956Z,15.50
2018-10-12T06:15:17.105Z,15.62
2018-10-12T06:17:47.151Z,15.69
2018-10-12T06:20:19.774Z,15.75
2018-10-12T06:22:49.814Z,15.95
2018-10-12T06:25:20.244Z,16.06
2018-10-12T06:27:50.477Z,16.11
2018-10-12T06:30:22.352Z,16.14
2018-10-12T06:32:52.464Z,16.31
2018-10-12T06:35:22.585Z,16.43
2018-10-12T06:37:52.790Z,16.45
2018-10-12T06:40:22.972Z,16.55
2018-10-12T06:42:53.041Z,16.69
2018-10-12T06:45:23.430Z,16.71
2018-10-12T06:47:53.422Z,16.95
2018-10-12T06:50:23.642Z,16.98
2018-10-12T06:52:53.867Z,16.93
2018-10-12T06:55:24.053Z,16.91
2018-10-12T06:57:54.490Z,16.97
2018-10-12T07:00:24.695Z,17.05
2018-10-12T07:02:54.965Z,17.02
2018-10-12T07:05:25.360Z,17.21
2018-10-12T07:07:55.886Z,17.09
2018-10-12T07:10:26.465Z,17.08
2018-10-12T07:12:56.716Z,17.19
2018-10-12T07:15:49.929Z,17.38
2018-10-12T07:18:20.226Z,17.54
2018-10-12T07:20:50.416Z,17.65
2018-10-12T07:23:20.768Z,17.76
2018-10-12T07:25:50.759Z,17.84
2018-10-12T07:28:22.050Z,17.94
2018-10-12T07:30:52.836Z,18.19
2018-10-12T07:33:23.793Z,18.38
2018-10-12T07:35:55.572Z,18.61
2018-10-12T07:38:25.899Z,18.83
2018-10-12T07:40:55.998Z,19.03
2018-10-12T07:43:26.152Z,19.46
2018-10-12T07:45:56.265Z,19.92
2018-10-12T07:48:26.319Z,20.36
2018-10-12T07:50:56.579Z,20.74
2018-10-12T07:53:26.744Z,21.22
2018-10-12T07:55:56.996Z,21.84
2018-10-12T07:58:27.115Z,22.34
2018-10-12T08:00:58.117Z,22.73
2018-10-12T08:03:28.783Z,23.01
2018-10-12T08:05:59.327Z,23.79
2018-10-12T08:08:29.378Z,23.78
2018-10-12T08:10:59.418Z,24.17
2018-10-12T08:13:29.829Z,24.14
2018-10-12T08:15:59.901Z,24.30
2018-10-12T08:18:30.245Z,24.56
2018-10-12T08:21:00.439Z,24.82
2018-10-12T08:23:30.797Z,24.12
2018-10-12T08:26:01.106Z,24.44
2018-10-12T08:28:31.303Z,24.25
2018-10-12T08:31:01.221Z,24.94
2018-10-12T08:33:31.360Z,25.42
2018-10-12T08:36:01.585Z,26.09
2018-10-12T08:38:31.708Z,25.57
2018-10-12T08:41:01.973Z,25.38
2018-10-12T08:43:32.015Z,25.51
2018-10-12T08:46:02.269Z,25.61
2018-10-12T08:48:32.473Z,25.53
2018-10-12T08:51:02.784Z,25.37
2018-10-12T08:53:32.922Z,25.46
2018-10-12T08:56:03.599Z,25.38
2018-10-12T08:58:37.065Z,25.77
2018-10-12T09:01:07.376Z,25.88
2018-10-12T09:03:37.796Z,25.86
2018-10-12T09:06:08.025Z,25.97
2018-10-12T09:08:38.664Z,25.56
2018-10-12T09:11:08.990Z,25.83
2018-10-12T09:13:39.200Z,25.77
2018-10-12T09:16:09.480Z,26.29
2018-10-12T09:18:39.763Z,27.11
2018-10-12T09:21:10.032Z,27.33
2018-10-12T09:23:40.508Z,27.16
2018-10-12T09:26:14.825Z,27.19
2018-10-12T09:28:45.077Z,27.82
2018-10-12T09:31:32.827Z,28.16
2018-10-12T09:34:04.969Z,27.28
2018-10-12T09:36:35.533Z,27.67
2018-10-12T09:39:06.940Z,28.18
2018-10-12T09:41:37.514Z,28.17
2018-10-12T09:44:14.464Z,28.60
2018-10-12T09:46:44.605Z,29.07
2018-10-12T09:49:16.836Z,28.68
2018-10-12T09:51:47.752Z,28.74
2018-10-12T09:54:17.812Z,28.59
2018-10-12T09:56:52.896Z,28.54
2018-10-12T09:59:23.260Z,28.55
2018-10-12T10:01:58.336Z,28.10
2018-10-12T10:04:32.545Z,28.24
2018-10-12T10:07:03.813Z,27.94
2018-10-12T10:09:34.312Z,27.70
2018-10-12T10:12:05.908Z,26.84
2018-10-12T10:14:37.128Z,27.24
2018-10-12T10:17:07.425Z,27.45
2018-10-12T10:19:37.920Z,27.37
2018-10-12T10:22:08.181Z,27.04
2018-10-12T10:24:38.624Z,27.06
2018-10-12T10:27:09.468Z,27.14
2018-10-12T10:29:39.563Z,27.58
2018-10-12T10:32:09.742Z,27.52
2018-10-12T10:34:39.768Z,27.51
2018-10-12T10:37:09.871Z,27.62
2018-10-12T10:39:40.307Z,27.88
2018-10-12T10:42:10.300Z,27.98
2018-10-12T10:44:40.301Z,28.64
2018-10-12T10:47:10.418Z,28.93
2018-10-12T10:49:40.541Z,27.73
2018-10-12T10:52:12.848Z,27.59
2018-10-12T10:54:42.979Z,27.80
2018-10-12T10:57:12.913Z,28.40
2018-10-12T10:59:42.969Z,28.64
2018-10-12T11:02:13.025Z,27.98
2018-10-12T11:04:43.192Z,27.67
2018-10-12T11:07:13.488Z,27.33
2018-10-12T11:09:43.748Z,26.73
2018-10-12T11:12:13.872Z,27.18
2018-10-12T11:14:44.160Z,27.60
2018-10-12T11:17:14.549Z,27.71
2018-10-12T11:19:44.637Z,28.24
2018-10-12T11:22:14.753Z,28.92
2018-10-12T11:24:45.007Z,29.43
2018-10-12T11:27:15.151Z,29.21
2018-10-12T11:29:45.424Z,28.76
2018-10-12T11:32:15.515Z,29.32
2018-10-12T11:34:45.538Z,29.90
2018-10-12T11:37:15.690Z,27.27
2018-10-12T11:39:48.217Z,27.24
2018-10-12T11:42:18.708Z,26.67
2018-10-12T11:44:50.422Z,27.26
2018-10-12T11:47:20.792Z,28.16
2018-10-12T11:49:50.968Z,28.81
2018-10-12T11:52:21.215Z,29.14
2018-10-12T11:54:51.293Z,29.41
2018-10-12T11:57:21.667Z,27.83
2018-10-12T11:59:51.693Z,27.78
2018-10-12T12:02:21.832Z,27.39
2018-10-12T12:04:52.097Z,27.36
2018-10-12T12:07:22.548Z,27.39
2018-10-12T12:09:52.509Z,27.98
2018-10-12T12:12:22.728Z,28.77
2018-10-12T12:14:52.731Z,29.17
2018-10-12T12:17:22.860Z,29.62
2018-10-12T12:19:53.038Z,29.72
2018-10-12T12:22:23.165Z,30.03
2018-10-12T12:24:53.285Z,29.97
2018-10-12T12:27:23.349Z,29.78
2018-10-12T12:29:53.411Z,30.04
2018-10-12T12:32:23.410Z,29.35
2018-10-12T12:34:53.650Z,28.03
2018-10-12T12:37:23.704Z,28.04
2018-10-12T12:40:19.152Z,28.40
2018-10-12T12:54:53.259Z,29.44
2018-10-12T13:07:48.688Z,27.79
2018-10-12T13:10:21.397Z,27.38
2018-10-12T13:12:51.439Z,27.88
2018-10-12T13:15:21.735Z,28.24
2018-10-12T13:17:51.708Z,28.36
2018-10-12T13:20:21.875Z,28.65
2018-10-12T13:22:51.949Z,28.49
2018-10-12T13:25:22.112Z,28.08
2018-10-12T13:27:52.103Z,27.84
2018-10-12T13:30:43.113Z,27.02
2018-10-12T13:33:13.312Z,27.04
2018-10-12T13:35:44.132Z,26.50
2018-10-12T13:38:14.240Z,25.51
2018-10-12T13:40:44.724Z,25.66
2018-10-12T13:52:29.031Z,27.07
2018-10-12T14:01:54.288Z,26.05
2018-10-12T14:04:24.723Z,25.62
2018-10-12T14:06:54.839Z,24.85
2018-10-12T14:09:25.147Z,24.03
2018-10-12T14:11:55.205Z,23.51
2018-10-12T14:14:25.327Z,23.40
2018-10-12T14:16:55.529Z,23.28
2018-10-12T14:19:25.651Z,23.21
2018-10-12T14:21:55.686Z,23.13
2018-10-12T14:24:25.770Z,23.03
2018-10-12T14:26:55.995Z,23.14
2018-10-12T14:29:26.042Z,23.13
2018-10-12T14:31:57.267Z,23.13
2018-10-12T14:34:27.497Z,23.07
2018-10-12T14:36:57.694Z,23.01
2018-10-12T14:39:27.623Z,23.01
2018-10-12T14:41:57.666Z,22.99
2018-10-12T14:44:27.767Z,22.93
2018-10-12T14:46:58.001Z,22.79
2018-10-12T14:49:28.367Z,22.73
2018-10-12T14:51:58.358Z,22.67
2018-10-12T14:54:28.595Z,22.68
2018-10-12T14:56:58.765Z,22.69
2018-10-12T14:59:28.993Z,22.54
2018-10-12T15:01:59.889Z,22.50
2018-10-12T15:04:29.892Z,22.53
2018-10-12T15:06:59.773Z,22.53
2018-10-12T15:09:29.796Z,22.38
2018-10-12T15:11:59.845Z,22.18
2018-10-12T15:14:40.259Z,22.18
2018-10-12T15:17:10.194Z,22.21
2018-10-12T15:19:40.603Z,22.12
2018-10-12T15:22:10.813Z,22.12
2018-10-12T15:24:41.001Z,22.12
2018-10-12T15:27:17.256Z,22.23
2018-10-12T15:29:47.346Z,22.20
2018-10-12T15:32:17.363Z,22.35
2018-10-12T15:41:29.090Z,22.29
2018-10-12T15:43:59.072Z,22.24
2018-10-12T15:46:29.260Z,22.11
2018-10-12T15:55:38.764Z,22.08
2018-10-12T15:58:09.125Z,21.96
2018-10-12T16:00:39.300Z,21.93
2018-10-12T16:03:12.167Z,21.76
2018-10-12T16:05:43.090Z,21.67
2018-10-12T16:08:15.008Z,21.76
2018-10-12T16:10:45.891Z,21.80
2018-10-12T16:13:17.237Z,21.69
2018-10-12T16:15:48.129Z,21.64
2018-10-12T16:18:19.170Z,21.68
2018-10-12T16:20:49.880Z,21.49
2018-10-12T16:23:20.767Z,21.23
2018-10-12T16:26:03.029Z,21.06
2018-10-12T16:28:33.240Z,20.94
2018-10-12T16:31:04.186Z,20.77
2018-10-12T16:33:34.601Z,20.78
2018-10-12T16:36:04.922Z,20.71
2018-10-12T16:38:35.353Z,20.49
2018-10-12T16:41:05.419Z,20.39
2018-10-12T16:43:35.466Z,20.20
2018-10-12T16:46:05.414Z,20.12
2018-10-12T16:48:35.509Z,20.10
2018-10-12T16:51:05.753Z,20.25
2018-10-12T16:53:35.741Z,20.41
2018-10-12T16:56:05.990Z,20.52
2018-10-12T16:58:39.509Z,20.77
2018-10-12T17:01:09.727Z,20.68
2018-10-12T17:03:39.717Z,20.38
2018-10-12T17:06:09.790Z,20.08
2018-10-12T17:08:40.161Z,19.96
2018-10-12T17:11:10.343Z,20.09
2018-10-12T17:13:40.909Z,19.81
2018-10-12T17:16:11.290Z,20.07
2018-10-12T17:18:41.296Z,20.12
2018-10-12T17:21:11.333Z,19.99
2018-10-12T17:23:41.210Z,19.57
2018-10-12T17:26:11.239Z,19.44
2018-10-12T17:28:41.408Z,19.34
2018-10-12T17:31:11.493Z,19.32
2018-10-12T17:33:41.428Z,19.38
2018-10-12T17:36:11.634Z,19.33
2018-10-12T17:38:41.744Z,19.31
2018-10-12T17:41:18.384Z,19.21
2018-10-12T17:43:48.776Z,19.11
2018-10-12T17:46:18.861Z,19.06
2018-10-12T17:48:49.665Z,19.09
2018-10-12T17:51:19.934Z,18.89
2018-10-12T17:53:50.310Z,18.84
2018-10-12T17:56:20.365Z,18.76
2018-10-12T17:58:50.764Z,18.78
2018-10-12T18:01:20.849Z,18.68
2018-10-12T18:03:51.333Z,18.56
2018-10-12T18:06:21.509Z,18.54
2018-10-12T18:08:51.813Z,18.52
2018-10-12T18:11:21.978Z,18.30
2018-10-12T18:13:52.091Z,18.23
2018-10-12T18:16:22.117Z,18.39
2018-10-12T18:18:53.082Z,18.40
2018-10-12T18:21:24.266Z,18.32
2018-10-12T18:23:54.452Z,18.04
2018-10-12T18:26:24.677Z,17.87
2018-10-12T18:28:54.779Z,17.83
2018-10-12T18:31:24.761Z,17.90
2018-10-12T18:33:55.121Z,17.96
2018-10-12T18:36:25.268Z,17.92
2018-10-12T18:38:55.404Z,17.70
2018-10-12T18:41:25.608Z,17.66
2018-10-12T18:43:55.721Z,17.59
2018-10-12T18:46:26.227Z,17.71
2018-10-12T18:48:57.264Z,17.67
2018-10-12T18:51:27.416Z,17.49
2018-10-12T18:53:57.451Z,17.66
2018-10-12T19:02:22.975Z,17.40
2018-10-12T19:04:55.318Z,17.31
2018-10-12T19:07:37.281Z,17.30
2018-10-12T19:10:11.602Z,17.41
2018-10-12T19:12:43.835Z,17.45
2018-10-12T19:15:15.651Z,17.38
2018-10-12T19:17:48.476Z,17.22
2018-10-12T19:20:20.879Z,17.12
2018-10-12T19:22:51.114Z,17.03
2018-10-12T19:25:22.236Z,16.95
2018-10-12T19:27:52.381Z,16.92
2018-10-12T19:30:23.233Z,16.84
2018-10-12T19:32:53.248Z,16.68
2018-10-12T19:35:23.472Z,16.51
2018-10-12T19:37:53.635Z,16.49
2018-10-12T19:40:23.696Z,16.57
2018-10-12T19:42:53.860Z,16.67
2018-10-12T19:45:24.167Z,16.53
2018-10-12T19:47:54.237Z,16.64
2018-10-12T19:50:24.344Z,16.49
2018-10-12T19:52:54.595Z,16.35
2018-10-12T19:55:24.622Z,16.50
2018-10-12T19:57:54.849Z,16.36
2018-10-12T20:00:27.265Z,16.27
2018-10-12T20:02:57.556Z,16.19
2018-10-12T20:05:27.683Z,16.29
2018-10-12T20:07:58.013Z,16.09
2018-10-12T20:10:29.064Z,16.13
2018-10-12T20:12:59.562Z,16.14
2018-10-12T20:15:29.561Z,16.22
2018-10-12T20:18:00.658Z,16.21
2018-10-12T20:20:31.433Z,16.26
2018-10-12T20:23:01.667Z,16.33
2018-10-12T20:25:32.207Z,16.23
2018-10-12T20:28:02.314Z,16.34
2018-10-12T20:30:32.226Z,16.28
2018-10-12T20:33:02.048Z,15.96
2018-10-12T20:35:31.920Z,15.97
2018-10-12T20:38:01.875Z,16.00
2018-10-12T20:40:31.931Z,15.93
2018-10-12T20:43:01.816Z,15.85
2018-10-12T20:45:31.651Z,15.89
2018-10-12T20:48:01.427Z,15.83
2018-10-12T20:50:31.365Z,15.83
2018-10-12T20:53:01.309Z,15.86
2018-10-12T20:55:31.261Z,15.82
2018-10-12T20:58:01.076Z,15.72
2018-10-12T21:00:31.074Z,15.87
2018-10-12T21:03:00.983Z,15.90
2018-10-12T21:05:30.786Z,15.93
2018-10-12T21:08:00.657Z,15.83
2018-10-12T21:10:30.657Z,15.73
2018-10-12T21:13:00.569Z,15.66
2018-10-12T21:15:30.408Z,15.45
2018-10-12T21:18:00.275Z,15.37
2018-10-12T21:20:30.115Z,15.49
2018-10-12T21:22:59.976Z,15.64
2018-10-12T21:25:30.410Z,15.54
2018-10-12T21:28:00.200Z,15.49
2018-10-12T21:30:30.129Z,15.37
2018-10-12T21:32:59.981Z,15.30
2018-10-12T21:35:29.714Z,15.25
2018-10-12T21:37:59.707Z,15.23
2018-10-12T21:40:29.541Z,15.20
2018-10-12T21:42:59.476Z,15.33
2018-10-12T21:45:29.310Z,15.39
2018-10-12T21:47:59.184Z,15.32
2018-10-12T21:50:29.046Z,15.48
2018-10-12T21:52:58.996Z,15.37
2018-10-12T21:55:28.912Z,15.32
2018-10-12T21:57:58.712Z,15.50
2018-10-12T22:00:33.332Z,15.63
2018-10-12T22:03:03.195Z,15.35
2018-10-12T22:05:34.627Z,15.33
2018-10-12T22:08:05.680Z,15.39
2018-10-12T22:10:35.536Z,15.55
2018-10-12T22:13:05.353Z,15.42
2018-10-12T22:15:35.281Z,15.57
2018-10-12T22:18:05.089Z,15.51
2018-10-12T22:20:35.034Z,15.35
2018-10-12T22:23:09.608Z,15.24
2018-10-12T22:25:39.475Z,15.00
2018-10-12T22:28:09.351Z,14.74
2018-10-12T22:30:39.112Z,14.81
2018-10-12T22:33:09.028Z,14.80
2018-10-12T22:35:38.803Z,14.77
2018-10-12T22:38:08.566Z,14.82
2018-10-12T22:40:38.408Z,14.78
2018-10-12T22:43:08.232Z,14.92
2018-10-12T22:45:38.297Z,15.04
2018-10-12T22:48:08.080Z,15.13
2018-10-12T22:50:37.995Z,14.84
2018-10-12T22:53:08.255Z,14.69
2018-10-12T22:55:38.318Z,14.83
2018-10-12T22:58:08.104Z,14.99
2018-10-12T23:00:37.957Z,14.71
2018-10-12T23:03:07.756Z,14.91
2018-10-12T23:05:37.569Z,14.79
2018-10-12T23:08:07.663Z,14.89
2018-10-12T23:10:37.602Z,14.64
2018-10-12T23:13:07.412Z,14.43
2018-10-12T23:15:37.237Z,14.42
2018-10-12T23:18:07.056Z,14.47
2018-10-12T23:20:36.910Z,14.31
2018-10-12T23:23:06.963Z,14.13
2018-10-12T23:25:36.806Z,14.03
2018-10-12T23:28:06.807Z,14.18
2018-10-12T23:30:36.655Z,14.17
2018-10-12T23:33:17.095Z,14.04
2018-10-12T23:46:21.613Z,14.32
2018-10-12T23:49:12.779Z,14.13
2018-10-12T23:51:42.593Z,13.85
2018-10-12T23:54:12.430Z,13.66
2018-10-12T23:56:42.325Z,13.48
2018-10-12T23:59:12.246Z,13.44
